sensor_id;sensor_type;location;lat;lon;timestamp;P1;durP1;ratioP1;P2;durP2;ratioP2
49728;SDS011;35617;50.714;7.114;2022-08-14T00:01:06;6.60;;;4.60;;
49728;SDS011;35617;50.714;7.114;2022-08-14T00:03:32;6.20;;;4.22;;
49728;SDS011;35617;50.714;7.114;2022-08-14T00:05:58;6.60;;;4.22;;
49728;SDS011;35617;50.714;7.114;2022-08-14T00:08:26;6.47;;;4.25;;
49728;SDS011;35617;50.714;7.114;2022-08-14T00:10:52;6.18;;;4.30;;
49728;SDS011;35617;50.714;7.114;2022-08-14T00:13:19;6.63;;;4.40;;
49728;SDS011;35617;50.714;7.114;2022-08-14T00:15:47;5.70;;;4.32;;
49728;SDS011;35617;50.714;7.114;2022-08-14T00:18:16;7.80;;;4.50;;
49728;SDS011;35617;50.714;7.114;2022-08-14T00:20:44;6.20;;;4.55;;
49728;SDS011;35617;50.714;7.114;2022-08-14T00:23:11;6.43;;;4.57;;
49728;SDS011;35617;50.714;7.114;2022-08-14T00:25:38;6.05;;;4.28;;
49728;SDS011;35617;50.714;7.114;2022-08-14T00:28:07;7.25;;;4.65;;
49728;SDS011;35617;50.714;7.114;2022-08-14T00:30:34;6.20;;;4.60;;
49728;SDS011;35617;50.714;7.114;2022-08-14T00:33:00;6.07;;;4.68;;
49728;SDS011;35617;50.714;7.114;2022-08-14T00:35:26;7.90;;;4.30;;
49728;SDS011;35617;50.714;7.114;2022-08-14T00:37:52;5.55;;;4.10;;
49728;SDS011;35617;50.714;7.114;2022-08-14T00:40:18;6.55;;;4.15;;
49728;SDS011;35617;50.714;7.114;2022-08-14T00:42:44;5.88;;;3.83;;
49728;SDS011;35617;50.714;7.114;2022-08-14T00:45:12;5.75;;;4.15;;
49728;SDS011;35617;50.714;7.114;2022-08-14T00:47:39;7.07;;;4.22;;
49728;SDS011;35617;50.714;7.114;2022-08-14T00:50:07;7.05;;;4.30;;
49728;SDS011;35617;50.714;7.114;2022-08-14T00:52:34;6.78;;;4.50;;
49728;SDS011;35617;50.714;7.114;2022-08-14T00:55:00;6.63;;;4.80;;
49728;SDS011;35617;50.714;7.114;2022-08-14T00:57:28;6.30;;;4.40;;
49728;SDS011;35617;50.714;7.114;2022-08-14T00:59:56;6.43;;;4.05;;
49728;SDS011;35617;50.714;7.114;2022-08-14T01:02:22;8.35;;;4.70;;
49728;SDS011;35617;50.714;7.114;2022-08-14T01:04:53;6.25;;;4.45;;
49728;SDS011;35617;50.714;7.114;2022-08-14T01:07:23;7.38;;;4.70;;
49728;SDS011;35617;50.714;7.114;2022-08-14T01:09:51;6.20;;;4.35;;
49728;SDS011;35617;50.714;7.114;2022-08-14T01:12:20;5.50;;;4.03;;
49728;SDS011;35617;50.714;7.114;2022-08-14T01:14:48;6.25;;;4.50;;
49728;SDS011;35617;50.714;7.114;2022-08-14T01:17:19;7.05;;;4.57;;
49728;SDS011;35617;50.714;7.114;2022-08-14T01:19:45;5.70;;;4.13;;
49728;SDS011;35617;50.714;7.114;2022-08-14T01:22:30;6.28;;;4.38;;
49728;SDS011;35617;50.714;7.114;2022-08-14T01:24:55;7.30;;;4.72;;
49728;SDS011;35617;50.714;7.114;2022-08-14T01:27:22;7.05;;;4.60;;
49728;SDS011;35617;50.714;7.114;2022-08-14T01:29:49;5.68;;;4.65;;
49728;SDS011;35617;50.714;7.114;2022-08-14T01:32:17;7.18;;;4.53;;
49728;SDS011;35617;50.714;7.114;2022-08-14T01:34:48;7.18;;;4.55;;
49728;SDS011;35617;50.714;7.114;2022-08-14T01:39:48;7.05;;;5.03;;
49728;SDS011;35617;50.714;7.114;2022-08-14T01:42:15;7.30;;;4.95;;
49728;SDS011;35617;50.714;7.114;2022-08-14T01:44:41;8.05;;;4.82;;
49728;SDS011;35617;50.714;7.114;2022-08-14T01:47:08;9.00;;;5.28;;
49728;SDS011;35617;50.714;7.114;2022-08-14T01:49:38;7.55;;;4.80;;
49728;SDS011;35617;50.714;7.114;2022-08-14T01:52:04;7.65;;;4.85;;
49728;SDS011;35617;50.714;7.114;2022-08-14T01:54:30;6.25;;;5.10;;
49728;SDS011;35617;50.714;7.114;2022-08-14T01:56:56;6.43;;;5.20;;
49728;SDS011;35617;50.714;7.114;2022-08-14T01:59:26;6.70;;;5.00;;
49728;SDS011;35617;50.714;7.114;2022-08-14T02:01:57;6.88;;;5.40;;
49728;SDS011;35617;50.714;7.114;2022-08-14T02:04:32;7.57;;;5.00;;
49728;SDS011;35617;50.714;7.114;2022-08-14T02:06:59;8.05;;;5.40;;
49728;SDS011;35617;50.714;7.114;2022-08-14T02:09:26;7.65;;;5.38;;
49728;SDS011;35617;50.714;7.114;2022-08-14T02:11:54;6.93;;;5.30;;
49728;SDS011;35617;50.714;7.114;2022-08-14T02:14:20;8.63;;;5.38;;
49728;SDS011;35617;50.714;7.114;2022-08-14T02:16:47;8.45;;;6.50;;
49728;SDS011;35617;50.714;7.114;2022-08-14T02:19:18;9.88;;;7.00;;
49728;SDS011;35617;50.714;7.114;2022-08-14T02:21:47;8.68;;;6.90;;
49728;SDS011;35617;50.714;7.114;2022-08-14T02:24:15;9.13;;;6.85;;
49728;SDS011;35617;50.714;7.114;2022-08-14T02:26:45;8.00;;;6.28;;
49728;SDS011;35617;50.714;7.114;2022-08-14T02:29:14;9.55;;;6.55;;
49728;SDS011;35617;50.714;7.114;2022-08-14T02:31:44;10.40;;;7.10;;
49728;SDS011;35617;50.714;7.114;2022-08-14T02:34:14;8.73;;;6.78;;
49728;SDS011;35617;50.714;7.114;2022-08-14T02:36:42;8.85;;;6.68;;
49728;SDS011;35617;50.714;7.114;2022-08-14T02:39:10;8.05;;;6.53;;
49728;SDS011;35617;50.714;7.114;2022-08-14T02:41:36;9.27;;;7.05;;
49728;SDS011;35617;50.714;7.114;2022-08-14T02:44:02;9.02;;;6.47;;
49728;SDS011;35617;50.714;7.114;2022-08-14T02:46:30;9.15;;;6.75;;
49728;SDS011;35617;50.714;7.114;2022-08-14T02:48:56;10.50;;;7.03;;
49728;SDS011;35617;50.714;7.114;2022-08-14T02:51:23;8.40;;;6.82;;
49728;SDS011;35617;50.714;7.114;2022-08-14T02:53:50;8.40;;;6.68;;
49728;SDS011;35617;50.714;7.114;2022-08-14T02:56:16;9.60;;;6.65;;
49728;SDS011;35617;50.714;7.114;2022-08-14T02:58:44;12.15;;;7.05;;
49728;SDS011;35617;50.714;7.114;2022-08-14T03:01:16;9.77;;;6.72;;
49728;SDS011;35617;50.714;7.114;2022-08-14T03:03:43;8.32;;;6.88;;
49728;SDS011;35617;50.714;7.114;2022-08-14T03:06:10;8.73;;;6.57;;
49728;SDS011;35617;50.714;7.114;2022-08-14T03:08:38;11.75;;;6.95;;
49728;SDS011;35617;50.714;7.114;2022-08-14T03:11:05;10.70;;;6.90;;
49728;SDS011;35617;50.714;7.114;2022-08-14T03:13:33;9.15;;;6.75;;
49728;SDS011;35617;50.714;7.114;2022-08-14T03:16:11;8.68;;;6.25;;
49728;SDS011;35617;50.714;7.114;2022-08-14T03:18:40;8.43;;;6.80;;
49728;SDS011;35617;50.714;7.114;2022-08-14T03:21:07;7.57;;;5.97;;
49728;SDS011;35617;50.714;7.114;2022-08-14T03:23:39;8.95;;;6.20;;
49728;SDS011;35617;50.714;7.114;2022-08-14T03:26:07;8.57;;;6.22;;
49728;SDS011;35617;50.714;7.114;2022-08-14T03:28:41;7.72;;;6.18;;
49728;SDS011;35617;50.714;7.114;2022-08-14T03:31:08;6.82;;;5.68;;
49728;SDS011;35617;50.714;7.114;2022-08-14T03:33:36;8.93;;;6.00;;
49728;SDS011;35617;50.714;7.114;2022-08-14T03:36:11;6.90;;;5.63;;
49728;SDS011;35617;50.714;7.114;2022-08-14T03:38:39;8.90;;;5.70;;
49728;SDS011;35617;50.714;7.114;2022-08-14T03:41:12;7.68;;;6.10;;
49728;SDS011;35617;50.714;7.114;2022-08-14T03:43:41;9.52;;;6.53;;
49728;SDS011;35617;50.714;7.114;2022-08-14T03:46:08;8.45;;;6.47;;
49728;SDS011;35617;50.714;7.114;2022-08-14T03:48:35;7.28;;;5.70;;
49728;SDS011;35617;50.714;7.114;2022-08-14T03:51:01;8.40;;;6.30;;
49728;SDS011;35617;50.714;7.114;2022-08-14T03:53:27;7.80;;;6.20;;
49728;SDS011;35617;50.714;7.114;2022-08-14T03:55:53;8.23;;;6.50;;
49728;SDS011;35617;50.714;7.114;2022-08-14T03:58:20;7.18;;;5.93;;
49728;SDS011;35617;50.714;7.114;2022-08-14T04:00:46;9.13;;;6.32;;
49728;SDS011;35617;50.714;7.114;2022-08-14T04:03:12;7.30;;;5.75;;
49728;SDS011;35617;50.714;7.114;2022-08-14T04:05:38;7.70;;;5.82;;
49728;SDS011;35617;50.714;7.114;2022-08-14T04:08:07;7.63;;;6.18;;
49728;SDS011;35617;50.714;7.114;2022-08-14T04:10:33;8.13;;;5.68;;
49728;SDS011;35617;50.714;7.114;2022-08-14T04:13:02;7.53;;;6.20;;
49728;SDS011;35617;50.714;7.114;2022-08-14T04:15:30;7.45;;;5.85;;
49728;SDS011;35617;50.714;7.114;2022-08-14T04:17:57;8.48;;;6.60;;
49728;SDS011;35617;50.714;7.114;2022-08-14T04:20:30;7.53;;;6.15;;
49728;SDS011;35617;50.714;7.114;2022-08-14T04:22:56;8.52;;;6.13;;
49728;SDS011;35617;50.714;7.114;2022-08-14T04:25:21;7.32;;;5.97;;
49728;SDS011;35617;50.714;7.114;2022-08-14T04:27:48;8.02;;;6.32;;
49728;SDS011;35617;50.714;7.114;2022-08-14T04:30:13;7.45;;;6.20;;
49728;SDS011;35617;50.714;7.114;2022-08-14T04:32:40;8.07;;;5.82;;
49728;SDS011;35617;50.714;7.114;2022-08-14T04:35:06;7.57;;;6.30;;
49728;SDS011;35617;50.714;7.114;2022-08-14T04:37:32;7.95;;;6.05;;
49728;SDS011;35617;50.714;7.114;2022-08-14T04:40:16;7.25;;;6.18;;
49728;SDS011;35617;50.714;7.114;2022-08-14T04:43:00;7.93;;;6.53;;
49728;SDS011;35617;50.714;7.114;2022-08-14T04:45:44;10.70;;;6.40;;
49728;SDS011;35617;50.714;7.114;2022-08-14T04:48:13;8.88;;;6.47;;
49728;SDS011;35617;50.714;7.114;2022-08-14T04:50:44;9.05;;;5.90;;
49728;SDS011;35617;50.714;7.114;2022-08-14T04:53:12;8.20;;;6.40;;
49728;SDS011;35617;50.714;7.114;2022-08-14T04:55:41;10.75;;;6.55;;
49728;SDS011;35617;50.714;7.114;2022-08-14T04:58:12;7.45;;;6.20;;
49728;SDS011;35617;50.714;7.114;2022-08-14T05:00:58;7.35;;;6.20;;
49728;SDS011;35617;50.714;7.114;2022-08-14T05:03:25;7.65;;;6.45;;
49728;SDS011;35617;50.714;7.114;2022-08-14T05:05:53;8.45;;;6.40;;
49728;SDS011;35617;50.714;7.114;2022-08-14T05:08:20;9.25;;;6.57;;
49728;SDS011;35617;50.714;7.114;2022-08-14T05:10:48;7.95;;;6.10;;
49728;SDS011;35617;50.714;7.114;2022-08-14T05:13:20;8.18;;;6.32;;
49728;SDS011;35617;50.714;7.114;2022-08-14T05:15:52;9.38;;;6.57;;
49728;SDS011;35617;50.714;7.114;2022-08-14T05:18:23;7.68;;;5.85;;
49728;SDS011;35617;50.714;7.114;2022-08-14T05:20:52;8.77;;;6.30;;
49728;SDS011;35617;50.714;7.114;2022-08-14T05:23:21;7.07;;;6.00;;
49728;SDS011;35617;50.714;7.114;2022-08-14T05:25:50;7.70;;;6.15;;
49728;SDS011;35617;50.714;7.114;2022-08-14T05:28:23;7.65;;;5.70;;
49728;SDS011;35617;50.714;7.114;2022-08-14T05:30:50;8.68;;;6.03;;
49728;SDS011;35617;50.714;7.114;2022-08-14T05:33:21;7.45;;;6.10;;
49728;SDS011;35617;50.714;7.114;2022-08-14T05:35:48;6.80;;;5.90;;
49728;SDS011;35617;50.714;7.114;2022-08-14T05:38:16;7.13;;;5.95;;
49728;SDS011;35617;50.714;7.114;2022-08-14T05:40:43;7.38;;;5.82;;
49728;SDS011;35617;50.714;7.114;2022-08-14T05:43:10;8.43;;;5.80;;
49728;SDS011;35617;50.714;7.114;2022-08-14T05:45:36;9.65;;;5.72;;
49728;SDS011;35617;50.714;7.114;2022-08-14T05:48:02;7.80;;;6.40;;
49728;SDS011;35617;50.714;7.114;2022-08-14T05:50:29;8.00;;;6.47;;
49728;SDS011;35617;50.714;7.114;2022-08-14T05:52:55;7.28;;;5.57;;
49728;SDS011;35617;50.714;7.114;2022-08-14T05:55:22;8.38;;;5.90;;
49728;SDS011;35617;50.714;7.114;2022-08-14T05:57:54;8.57;;;6.45;;
49728;SDS011;35617;50.714;7.114;2022-08-14T06:00:24;8.73;;;6.00;;
49728;SDS011;35617;50.714;7.114;2022-08-14T06:03:11;7.53;;;6.20;;
49728;SDS011;35617;50.714;7.114;2022-08-14T06:05:39;7.68;;;6.22;;
49728;SDS011;35617;50.714;7.114;2022-08-14T06:08:12;8.35;;;6.00;;
49728;SDS011;35617;50.714;7.114;2022-08-14T06:10:43;7.10;;;6.40;;
49728;SDS011;35617;50.714;7.114;2022-08-14T06:13:09;8.23;;;5.75;;
49728;SDS011;35617;50.714;7.114;2022-08-14T06:15:35;7.78;;;5.70;;
49728;SDS011;35617;50.714;7.114;2022-08-14T06:18:00;7.63;;;5.68;;
49728;SDS011;35617;50.714;7.114;2022-08-14T06:20:26;8.80;;;6.30;;
49728;SDS011;35617;50.714;7.114;2022-08-14T06:22:53;8.75;;;6.07;;
49728;SDS011;35617;50.714;7.114;2022-08-14T06:25:19;7.88;;;6.32;;
49728;SDS011;35617;50.714;7.114;2022-08-14T06:27:45;7.60;;;6.18;;
49728;SDS011;35617;50.714;7.114;2022-08-14T06:30:16;8.25;;;6.43;;
49728;SDS011;35617;50.714;7.114;2022-08-14T06:32:43;7.32;;;6.20;;
49728;SDS011;35617;50.714;7.114;2022-08-14T06:35:10;7.90;;;6.28;;
49728;SDS011;35617;50.714;7.114;2022-08-14T06:37:43;8.00;;;6.40;;
49728;SDS011;35617;50.714;7.114;2022-08-14T06:40:11;7.72;;;6.75;;
49728;SDS011;35617;50.714;7.114;2022-08-14T06:42:38;8.52;;;6.82;;
49728;SDS011;35617;50.714;7.114;2022-08-14T06:45:06;9.95;;;6.85;;
49728;SDS011;35617;50.714;7.114;2022-08-14T06:47:33;9.00;;;6.57;;
49728;SDS011;35617;50.714;7.114;2022-08-14T06:49:59;8.32;;;6.55;;
49728;SDS011;35617;50.714;7.114;2022-08-14T06:52:26;8.80;;;6.97;;
49728;SDS011;35617;50.714;7.114;2022-08-14T06:54:51;9.55;;;6.90;;
49728;SDS011;35617;50.714;7.114;2022-08-14T06:57:17;7.95;;;6.68;;
49728;SDS011;35617;50.714;7.114;2022-08-14T06:59:43;10.18;;;7.07;;
49728;SDS011;35617;50.714;7.114;2022-08-14T07:02:08;9.27;;;6.85;;
49728;SDS011;35617;50.714;7.114;2022-08-14T07:04:54;9.25;;;7.00;;
49728;SDS011;35617;50.714;7.114;2022-08-14T07:07:39;12.18;;;7.55;;
49728;SDS011;35617;50.714;7.114;2022-08-14T07:10:05;11.23;;;8.60;;
49728;SDS011;35617;50.714;7.114;2022-08-14T07:12:32;9.27;;;8.27;;
49728;SDS011;35617;50.714;7.114;2022-08-14T07:14:57;8.48;;;7.25;;
49728;SDS011;35617;50.714;7.114;2022-08-14T07:17:23;11.20;;;7.30;;
49728;SDS011;35617;50.714;7.114;2022-08-14T07:19:48;9.25;;;7.68;;
49728;SDS011;35617;50.714;7.114;2022-08-14T07:22:14;8.77;;;7.30;;
49728;SDS011;35617;50.714;7.114;2022-08-14T07:24:40;9.38;;;7.28;;
49728;SDS011;35617;50.714;7.114;2022-08-14T07:27:05;8.70;;;7.15;;
49728;SDS011;35617;50.714;7.114;2022-08-14T07:29:31;8.20;;;7.03;;
49728;SDS011;35617;50.714;7.114;2022-08-14T07:31:57;8.88;;;7.00;;
49728;SDS011;35617;50.714;7.114;2022-08-14T07:34:22;8.27;;;7.18;;
49728;SDS011;35617;50.714;7.114;2022-08-14T07:36:48;11.07;;;7.30;;
49728;SDS011;35617;50.714;7.114;2022-08-14T07:39:13;9.90;;;7.72;;
49728;SDS011;35617;50.714;7.114;2022-08-14T07:41:39;9.20;;;7.60;;
49728;SDS011;35617;50.714;7.114;2022-08-14T07:44:05;9.02;;;7.50;;
49728;SDS011;35617;50.714;7.114;2022-08-14T07:46:31;8.27;;;7.40;;
49728;SDS011;35617;50.714;7.114;2022-08-14T07:48:57;9.18;;;7.55;;
49728;SDS011;35617;50.714;7.114;2022-08-14T07:51:22;11.32;;;7.78;;
49728;SDS011;35617;50.714;7.114;2022-08-14T07:53:48;9.13;;;8.13;;
49728;SDS011;35617;50.714;7.114;2022-08-14T07:56:15;8.43;;;7.55;;
49728;SDS011;35617;50.714;7.114;2022-08-14T07:58:41;8.55;;;7.28;;
49728;SDS011;35617;50.714;7.114;2022-08-14T08:01:07;8.00;;;7.20;;
49728;SDS011;35617;50.714;7.114;2022-08-14T08:03:33;11.55;;;7.82;;
49728;SDS011;35617;50.714;7.114;2022-08-14T08:06:02;9.57;;;7.68;;
49728;SDS011;35617;50.714;7.114;2022-08-14T08:08:28;10.00;;;7.30;;
49728;SDS011;35617;50.714;7.114;2022-08-14T08:10:55;9.20;;;8.07;;
49728;SDS011;35617;50.714;7.114;2022-08-14T08:13:21;8.82;;;7.43;;
49728;SDS011;35617;50.714;7.114;2022-08-14T08:15:48;8.38;;;7.20;;
49728;SDS011;35617;50.714;7.114;2022-08-14T08:18:18;7.93;;;7.07;;
49728;SDS011;35617;50.714;7.114;2022-08-14T08:20:47;7.97;;;7.18;;
49728;SDS011;35617;50.714;7.114;2022-08-14T08:23:15;8.60;;;7.10;;
49728;SDS011;35617;50.714;7.114;2022-08-14T08:25:43;8.27;;;7.43;;
49728;SDS011;35617;50.714;7.114;2022-08-14T08:30:39;9.10;;;7.22;;
49728;SDS011;35617;50.714;7.114;2022-08-14T08:33:07;8.10;;;6.95;;
49728;SDS011;35617;50.714;7.114;2022-08-14T08:35:35;8.85;;;7.72;;
49728;SDS011;35617;50.714;7.114;2022-08-14T08:38:46;8.27;;;7.40;;
49728;SDS011;35617;50.714;7.114;2022-08-14T08:40:55;9.43;;;7.20;;
49728;SDS011;35617;50.714;7.114;2022-08-14T08:43:23;10.60;;;7.05;;
49728;SDS011;35617;50.714;7.114;2022-08-14T08:46:00;9.07;;;7.50;;
49728;SDS011;35617;50.714;7.114;2022-08-14T08:48:54;8.45;;;7.10;;
49728;SDS011;35617;50.714;7.114;2022-08-14T08:51:31;7.63;;;6.80;;
49728;SDS011;35617;50.714;7.114;2022-08-14T08:54:02;10.07;;;7.45;;
49728;SDS011;35617;50.714;7.114;2022-08-14T08:56:40;9.23;;;7.45;;
49728;SDS011;35617;50.714;7.114;2022-08-14T08:59:17;9.40;;;7.95;;
49728;SDS011;35617;50.714;7.114;2022-08-14T09:01:51;9.13;;;7.47;;
49728;SDS011;35617;50.714;7.114;2022-08-14T09:04:22;6.88;;;6.10;;
49728;SDS011;35617;50.714;7.114;2022-08-14T09:06:49;7.25;;;6.10;;
49728;SDS011;35617;50.714;7.114;2022-08-14T09:09:23;8.68;;;6.95;;
49728;SDS011;35617;50.714;7.114;2022-08-14T09:14:20;6.93;;;6.22;;
49728;SDS011;35617;50.714;7.114;2022-08-14T09:16:47;8.93;;;6.30;;
49728;SDS011;35617;50.714;7.114;2022-08-14T09:19:14;7.80;;;6.78;;
49728;SDS011;35617;50.714;7.114;2022-08-14T09:21:40;8.32;;;6.88;;
49728;SDS011;35617;50.714;7.114;2022-08-14T09:24:07;8.15;;;6.53;;
49728;SDS011;35617;50.714;7.114;2022-08-14T09:26:34;7.97;;;6.97;;
49728;SDS011;35617;50.714;7.114;2022-08-14T09:29:01;8.40;;;7.18;;
49728;SDS011;35617;50.714;7.114;2022-08-14T09:31:28;7.15;;;6.45;;
49728;SDS011;35617;50.714;7.114;2022-08-14T09:36:44;9.65;;;7.20;;
49728;SDS011;35617;50.714;7.114;2022-08-14T09:45:17;7.40;;;6.30;;
49728;SDS011;35617;50.714;7.114;2022-08-14T09:47:54;7.88;;;6.13;;
49728;SDS011;35617;50.714;7.114;2022-08-14T09:52:50;9.05;;;6.28;;
49728;SDS011;35617;50.714;7.114;2022-08-14T09:55:21;7.97;;;5.93;;
49728;SDS011;35617;50.714;7.114;2022-08-14T09:57:48;7.97;;;5.60;;
49728;SDS011;35617;50.714;7.114;2022-08-14T10:00:15;8.13;;;5.85;;
49728;SDS011;35617;50.714;7.114;2022-08-14T10:02:55;7.80;;;6.05;;
49728;SDS011;35617;50.714;7.114;2022-08-14T10:05:36;6.40;;;5.68;;
49728;SDS011;35617;50.714;7.114;2022-08-14T10:08:02;6.82;;;6.13;;
49728;SDS011;35617;50.714;7.114;2022-08-14T10:13:02;7.78;;;6.03;;
49728;SDS011;35617;50.714;7.114;2022-08-14T10:15:44;7.80;;;5.75;;
49728;SDS011;35617;50.714;7.114;2022-08-14T10:18:11;8.43;;;5.45;;
49728;SDS011;35617;50.714;7.114;2022-08-14T10:20:43;7.88;;;5.80;;
49728;SDS011;35617;50.714;7.114;2022-08-14T10:23:17;9.57;;;5.40;;
49728;SDS011;35617;50.714;7.114;2022-08-14T10:25:49;6.60;;;5.72;;
49728;SDS011;35617;50.714;7.114;2022-08-14T10:28:17;6.70;;;6.00;;
49728;SDS011;35617;50.714;7.114;2022-08-14T10:30:44;10.70;;;5.95;;
49728;SDS011;35617;50.714;7.114;2022-08-14T10:36:08;6.55;;;5.85;;
49728;SDS011;35617;50.714;7.114;2022-08-14T10:38:35;7.88;;;5.82;;
49728;SDS011;35617;50.714;7.114;2022-08-14T10:41:08;7.03;;;5.25;;
49728;SDS011;35617;50.714;7.114;2022-08-14T10:43:38;7.45;;;5.00;;
49728;SDS011;35617;50.714;7.114;2022-08-14T10:46:12;6.53;;;5.18;;
49728;SDS011;35617;50.714;7.114;2022-08-14T10:48:40;7.50;;;4.68;;
49728;SDS011;35617;50.714;7.114;2022-08-14T10:51:07;6.47;;;4.97;;
49728;SDS011;35617;50.714;7.114;2022-08-14T10:53:33;5.88;;;5.10;;
49728;SDS011;35617;50.714;7.114;2022-08-14T10:56:02;6.22;;;4.45;;
49728;SDS011;35617;50.714;7.114;2022-08-14T10:58:32;6.80;;;4.97;;
49728;SDS011;35617;50.714;7.114;2022-08-14T11:00:59;5.50;;;4.65;;
49728;SDS011;35617;50.714;7.114;2022-08-14T11:03:41;10.15;;;4.75;;
49728;SDS011;35617;50.714;7.114;2022-08-14T11:06:14;7.15;;;4.82;;
49728;SDS011;35617;50.714;7.114;2022-08-14T11:08:46;6.30;;;5.07;;
49728;SDS011;35617;50.714;7.114;2022-08-14T11:11:13;4.90;;;4.40;;
49728;SDS011;35617;50.714;7.114;2022-08-14T11:13:40;6.90;;;4.88;;
49728;SDS011;35617;50.714;7.114;2022-08-14T11:16:14;6.15;;;4.63;;
49728;SDS011;35617;50.714;7.114;2022-08-14T11:18:44;10.55;;;4.93;;
49728;SDS011;35617;50.714;7.114;2022-08-14T11:21:14;5.57;;;4.82;;
49728;SDS011;35617;50.714;7.114;2022-08-14T11:23:43;5.75;;;4.97;;
49728;SDS011;35617;50.714;7.114;2022-08-14T11:26:11;6.13;;;4.28;;
49728;SDS011;35617;50.714;7.114;2022-08-14T11:28:39;5.45;;;4.30;;
49728;SDS011;35617;50.714;7.114;2022-08-14T11:31:07;5.75;;;4.40;;
49728;SDS011;35617;50.714;7.114;2022-08-14T11:33:34;5.43;;;4.72;;
49728;SDS011;35617;50.714;7.114;2022-08-14T11:36:02;5.97;;;4.70;;
49728;SDS011;35617;50.714;7.114;2022-08-14T11:41:03;6.07;;;4.85;;
49728;SDS011;35617;50.714;7.114;2022-08-14T11:43:30;6.28;;;4.82;;
49728;SDS011;35617;50.714;7.114;2022-08-14T11:45:56;7.10;;;5.05;;
49728;SDS011;35617;50.714;7.114;2022-08-14T11:48:23;6.85;;;5.10;;
49728;SDS011;35617;50.714;7.114;2022-08-14T11:50:49;5.70;;;4.18;;
49728;SDS011;35617;50.714;7.114;2022-08-14T11:53:23;5.82;;;4.85;;
49728;SDS011;35617;50.714;7.114;2022-08-14T11:55:57;6.13;;;4.63;;
49728;SDS011;35617;50.714;7.114;2022-08-14T11:58:30;5.20;;;4.20;;
49728;SDS011;35617;50.714;7.114;2022-08-14T12:01:01;5.40;;;4.30;;
49728;SDS011;35617;50.714;7.114;2022-08-14T12:03:40;5.77;;;4.10;;
49728;SDS011;35617;50.714;7.114;2022-08-14T12:06:15;5.32;;;4.00;;
49728;SDS011;35617;50.714;7.114;2022-08-14T12:08:42;5.03;;;4.05;;
49728;SDS011;35617;50.714;7.114;2022-08-14T12:11:10;5.82;;;4.32;;
49728;SDS011;35617;50.714;7.114;2022-08-14T12:13:37;5.85;;;4.10;;
49728;SDS011;35617;50.714;7.114;2022-08-14T12:16:05;5.75;;;4.20;;
49728;SDS011;35617;50.714;7.114;2022-08-14T12:21:12;4.88;;;4.00;;
49728;SDS011;35617;50.714;7.114;2022-08-14T12:23:43;5.85;;;4.38;;
49728;SDS011;35617;50.714;7.114;2022-08-14T12:26:12;6.28;;;4.80;;
49728;SDS011;35617;50.714;7.114;2022-08-14T12:28:41;6.75;;;4.30;;
49728;SDS011;35617;50.714;7.114;2022-08-14T12:31:11;6.55;;;4.25;;
49728;SDS011;35617;50.714;7.114;2022-08-14T12:33:41;5.13;;;4.07;;
49728;SDS011;35617;50.714;7.114;2022-08-14T12:36:08;5.20;;;4.13;;
49728;SDS011;35617;50.714;7.114;2022-08-14T12:38:45;5.30;;;4.30;;
49728;SDS011;35617;50.714;7.114;2022-08-14T12:41:12;6.03;;;4.15;;
49728;SDS011;35617;50.714;7.114;2022-08-14T12:43:43;5.95;;;3.85;;
49728;SDS011;35617;50.714;7.114;2022-08-14T12:49:11;5.40;;;4.00;;
49728;SDS011;35617;50.714;7.114;2022-08-14T12:51:37;5.43;;;4.05;;
49728;SDS011;35617;50.714;7.114;2022-08-14T12:54:17;5.35;;;3.97;;
49728;SDS011;35617;50.714;7.114;2022-08-14T12:56:44;5.78;;;4.05;;
49728;SDS011;35617;50.714;7.114;2022-08-14T12:59:11;6.35;;;5.65;;
49728;SDS011;35617;50.714;7.114;2022-08-14T13:01:38;5.32;;;3.90;;
49728;SDS011;35617;50.714;7.114;2022-08-14T13:04:12;8.07;;;4.57;;
49728;SDS011;35617;50.714;7.114;2022-08-14T13:06:40;5.85;;;4.15;;
49728;SDS011;35617;50.714;7.114;2022-08-14T13:09:09;4.70;;;3.80;;
49728;SDS011;35617;50.714;7.114;2022-08-14T13:11:37;5.70;;;4.25;;
49728;SDS011;35617;50.714;7.114;2022-08-14T13:14:08;5.68;;;3.95;;
49728;SDS011;35617;50.714;7.114;2022-08-14T13:16:37;5.95;;;4.53;;
49728;SDS011;35617;50.714;7.114;2022-08-14T13:19:12;4.90;;;4.00;;
49728;SDS011;35617;50.714;7.114;2022-08-14T13:21:40;5.32;;;3.88;;
49728;SDS011;35617;50.714;7.114;2022-08-14T13:26:43;6.72;;;3.72;;
49728;SDS011;35617;50.714;7.114;2022-08-14T13:29:18;7.50;;;5.90;;
49728;SDS011;35617;50.714;7.114;2022-08-14T13:31:47;5.97;;;3.60;;
49728;SDS011;35617;50.714;7.114;2022-08-14T13:34:17;6.03;;;4.63;;
49728;SDS011;35617;50.714;7.114;2022-08-14T13:36:47;9.20;;;3.88;;
49728;SDS011;35617;50.714;7.114;2022-08-14T13:39:17;5.57;;;4.00;;
49728;SDS011;35617;50.714;7.114;2022-08-14T13:41:44;5.78;;;4.10;;
49728;SDS011;35617;50.714;7.114;2022-08-14T13:44:11;5.57;;;3.40;;
49728;SDS011;35617;50.714;7.114;2022-08-14T13:46:39;7.43;;;3.60;;
49728;SDS011;35617;50.714;7.114;2022-08-14T13:49:05;5.05;;;3.67;;
49728;SDS011;35617;50.714;7.114;2022-08-14T13:51:35;5.03;;;3.40;;
49728;SDS011;35617;50.714;7.114;2022-08-14T13:54:04;4.38;;;3.40;;
49728;SDS011;35617;50.714;7.114;2022-08-14T13:56:30;5.95;;;3.97;;
49728;SDS011;35617;50.714;7.114;2022-08-14T13:59:00;5.80;;;4.05;;
49728;SDS011;35617;50.714;7.114;2022-08-14T14:01:27;5.32;;;4.32;;
49728;SDS011;35617;50.714;7.114;2022-08-14T14:03:54;5.15;;;4.22;;
49728;SDS011;35617;50.714;7.114;2022-08-14T14:06:22;4.78;;;3.90;;
49728;SDS011;35617;50.714;7.114;2022-08-14T14:08:49;7.63;;;4.70;;
49728;SDS011;35617;50.714;7.114;2022-08-14T14:11:18;5.00;;;3.70;;
49728;SDS011;35617;50.714;7.114;2022-08-14T14:13:48;5.80;;;3.55;;
49728;SDS011;35617;50.714;7.114;2022-08-14T14:16:18;5.90;;;3.80;;
49728;SDS011;35617;50.714;7.114;2022-08-14T14:18:45;5.55;;;4.03;;
49728;SDS011;35617;50.714;7.114;2022-08-14T14:21:19;5.03;;;3.67;;
49728;SDS011;35617;50.714;7.114;2022-08-14T14:23:45;4.60;;;3.78;;
49728;SDS011;35617;50.714;7.114;2022-08-14T14:26:12;5.35;;;4.03;;
49728;SDS011;35617;50.714;7.114;2022-08-14T14:28:47;6.80;;;3.72;;
49728;SDS011;35617;50.714;7.114;2022-08-14T14:31:16;5.00;;;4.40;;
49728;SDS011;35617;50.714;7.114;2022-08-14T14:33:48;7.88;;;5.63;;
49728;SDS011;35617;50.714;7.114;2022-08-14T14:36:23;5.63;;;4.78;;
49728;SDS011;35617;50.714;7.114;2022-08-14T14:39:05;5.25;;;4.05;;
49728;SDS011;35617;50.714;7.114;2022-08-14T14:41:33;5.00;;;3.53;;
49728;SDS011;35617;50.714;7.114;2022-08-14T14:44:02;5.72;;;4.25;;
49728;SDS011;35617;50.714;7.114;2022-08-14T14:46:31;5.55;;;3.67;;
49728;SDS011;35617;50.714;7.114;2022-08-14T14:49:01;4.63;;;3.20;;
49728;SDS011;35617;50.714;7.114;2022-08-14T14:51:28;6.82;;;5.22;;
49728;SDS011;35617;50.714;7.114;2022-08-14T14:53:53;8.57;;;7.45;;
49728;SDS011;35617;50.714;7.114;2022-08-14T14:56:21;6.95;;;5.43;;
49728;SDS011;35617;50.714;7.114;2022-08-14T14:58:49;6.75;;;4.38;;
49728;SDS011;35617;50.714;7.114;2022-08-14T15:01:15;5.50;;;3.80;;
49728;SDS011;35617;50.714;7.114;2022-08-14T15:03:47;5.72;;;4.00;;
49728;SDS011;35617;50.714;7.114;2022-08-14T15:06:17;4.45;;;3.70;;
49728;SDS011;35617;50.714;7.114;2022-08-14T15:08:48;5.05;;;4.00;;
49728;SDS011;35617;50.714;7.114;2022-08-14T15:11:16;5.18;;;4.40;;
49728;SDS011;35617;50.714;7.114;2022-08-14T15:13:42;6.57;;;3.97;;
49728;SDS011;35617;50.714;7.114;2022-08-14T15:16:08;5.43;;;4.32;;
49728;SDS011;35617;50.714;7.114;2022-08-14T15:18:34;5.07;;;3.97;;
49728;SDS011;35617;50.714;7.114;2022-08-14T15:21:03;5.18;;;3.60;;
49728;SDS011;35617;50.714;7.114;2022-08-14T15:23:31;5.13;;;3.88;;
49728;SDS011;35617;50.714;7.114;2022-08-14T15:25:57;7.10;;;6.40;;
49728;SDS011;35617;50.714;7.114;2022-08-14T15:28:23;6.95;;;6.25;;
49728;SDS011;35617;50.714;7.114;2022-08-14T15:30:50;5.25;;;4.18;;
49728;SDS011;35617;50.714;7.114;2022-08-14T15:33:17;5.85;;;4.00;;